Indio, CA (92203)

8:47 AM PST on March 06, 2015 (GMT -0800)
SCSH | Change Station
CLOSE
Current Station
Personal Weather Station
Location: Indio, CA
Elevation: 70 ft
Nearby Weather Stations

Elev 70 ft 33.75 °N, 116.24 °W | Updated 1 second ago

Clear
Clear
71.4 °F
Feels Like 74 °F
N
1.0
Wind Variable Wind from West
Gusts 6.9 mph

Today
High -- | Low -- °F
--% Chance of Precip.
Yesterday
High -- | Low -- °F
Precip. -- in
6:07 AM 5:45 PM
Full, 99% visible
Pressure 30.21 in
Visibility 10.0 miles
Clouds Clear
Heat Index 74 °F
Dew Point 24 °F
Humidity 17%
Rainfall in
Snow Depth Not available.
UV 2 out of 12
Pollen 8.90 out of 12
Air Quality Not available.
Flu Activity Not available.
METAR KPSP 061553Z 25005KT 10SM CLR 19/M04 A3021 RMK AO2 SLP228 T01941044

More Conditions Fewer Conditions

Pressure 30.21 in
Visibility 10.0 miles
Clouds Clear
Heat Index 74 °F
Dew Point 24 °F
Humidity 17%
Rainfall in
Snow Depth Not available.
UV 2 out of 12
Pollen 8.90 out of 12
Air Quality Not available.
Flu Activity Not available.
METAR KPSP 061553Z 25005KT 10SM CLR 19/M04 A3021 RMK AO2 SLP228 T01941044

More Conditions Fewer Conditions

10-Day Weather Forecast

Almanac

Astronomy

Mar. 06, 2015 Rise Set
Actual Time
Civil Twilight
Nautical Twilight
Astronomical Twilight
Moon
Length of Visible Light
Length of Day
Tomorrow will be .
, % of the Moon is Illuminated

Today's Extremes

State Highs State Lows

Community

WunderPhotos

Upload Photos

1,803,336 photos uploaded!

WunderBlogs® & News

Nearby

Air Quality

  Air Quality AQ Index Pollutant
Not available.

Snow Depth

Station Depth Elevation

Earthquake Activity

City Distance Mag. Time & Date
Minimum magnitude displayed is 2.5.

Coastal Water Temperatures

Place Temperature

Nearby Weather Stations